createdAt,value
2022-12-14T00:01:45.044Z,-0.46
2022-12-14T00:04:16.239Z,-0.22
2022-12-14T00:06:43.092Z,-0.03
2022-12-14T00:09:09.941Z,-0.63
2022-12-14T00:11:36.788Z,-0.45
2022-12-14T00:14:04.661Z,-0.06
2022-12-14T00:16:34.376Z,0.08
2022-12-14T00:19:02.783Z,-0.12
2022-12-14T00:21:29.756Z,0.12
2022-12-14T00:23:58.854Z,-0.55
2022-12-14T00:26:28.895Z,-0.86
2022-12-14T00:28:57.897Z,-0.75
2022-12-14T00:31:25.574Z,-0.70
2022-12-14T00:33:53.062Z,-0.71
2022-12-14T00:36:20.442Z,-1.00
2022-12-14T00:38:47.449Z,-0.92
2022-12-14T00:41:14.427Z,-0.97
2022-12-14T00:43:41.529Z,-0.88
2022-12-14T00:46:08.656Z,-0.82
2022-12-14T00:48:36.150Z,-0.72
2022-12-14T00:51:03.554Z,-0.75
2022-12-14T00:53:30.663Z,-0.70
2022-12-14T00:55:57.772Z,-0.57
2022-12-14T00:58:25.782Z,-0.80
2022-12-14T01:01:07.934Z,-0.81
2022-12-14T01:03:35.193Z,-0.82
2022-12-14T01:06:02.654Z,-0.73
2022-12-14T01:08:35.995Z,-0.60
2022-12-14T01:11:07.820Z,-0.81
2022-12-14T01:13:35.860Z,-0.70
2022-12-14T01:16:08.943Z,-0.41
2022-12-14T01:18:37.732Z,0.07
2022-12-14T01:21:13.602Z,0.21
2022-12-14T01:23:40.709Z,0.37
2022-12-14T01:26:07.609Z,0.14
2022-12-14T01:28:35.534Z,-0.57
2022-12-14T01:31:10.518Z,-0.36
2022-12-14T01:33:37.665Z,-0.78
2022-12-14T01:36:10.310Z,-0.65
2022-12-14T01:38:37.669Z,-0.67
2022-12-14T01:41:05.979Z,-0.67
2022-12-14T01:43:52.498Z,-0.62
2022-12-14T01:46:38.741Z,-0.56
2022-12-14T01:49:28.727Z,-0.63
2022-12-14T01:52:11.693Z,-0.64
2022-12-14T01:54:48.955Z,-0.54
2022-12-14T01:57:19.365Z,-0.43
2022-12-14T01:59:48.446Z,-0.58
2022-12-14T02:02:18.023Z,-0.41
2022-12-14T02:04:54.331Z,-0.72
2022-12-14T02:07:23.041Z,-0.63
2022-12-14T02:09:52.433Z,-0.40
2022-12-14T02:12:35.056Z,-0.43
2022-12-14T02:15:03.264Z,-0.35
2022-12-14T02:17:30.271Z,-0.13
2022-12-14T02:19:58.524Z,-0.04
2022-12-14T02:22:52.742Z,0.01
2022-12-14T02:26:03.854Z,-0.13
2022-12-14T02:29:07.666Z,-0.17
2022-12-14T02:31:57.728Z,-0.49
2022-12-14T02:34:24.571Z,-0.82
2022-12-14T02:37:07.282Z,-0.69
2022-12-14T02:39:52.720Z,-0.30
2022-12-14T02:42:38.083Z,-0.41
2022-12-14T02:45:43.235Z,-0.58
2022-12-14T02:48:20.146Z,-0.48
2022-12-14T02:51:26.022Z,-0.74
2022-12-14T02:54:01.067Z,-0.80
2022-12-14T02:56:44.566Z,-0.91
2022-12-14T02:59:12.310Z,-0.98
2022-12-14T03:01:41.965Z,-1.26
2022-12-14T03:04:14.681Z,-1.15
2022-12-14T03:07:02.756Z,-0.99
2022-12-14T03:09:32.747Z,-1.02
2022-12-14T03:12:10.226Z,-1.31
2022-12-14T03:14:45.127Z,-1.38
2022-12-14T03:17:19.970Z,-1.27
2022-12-14T03:20:12.660Z,-1.49
2022-12-14T03:22:51.110Z,-1.64
2022-12-14T03:25:26.985Z,-1.78
2022-12-14T03:28:03.164Z,-1.40
2022-12-14T03:30:58.938Z,-1.18
2022-12-14T03:33:22.639Z,-1.14
2022-12-14T03:36:02.529Z,-1.13
2022-12-14T03:38:32.754Z,-0.99
2022-12-14T03:41:13.370Z,-0.86
2022-12-14T03:43:58.260Z,-0.66
2022-12-14T03:47:10.075Z,-0.61
2022-12-14T03:50:09.231Z,-0.56
2022-12-14T03:52:42.906Z,-0.48
2022-12-14T03:55:31.016Z,-0.25
2022-12-14T03:58:04.067Z,-0.32
2022-12-14T04:00:37.516Z,-0.23
2022-12-14T04:03:29.933Z,-0.03
2022-12-14T04:06:09.203Z,-0.25
2022-12-14T04:09:15.764Z,-0.57
2022-12-14T04:12:11.770Z,-0.20
2022-12-14T04:15:04.996Z,-0.14
2022-12-14T04:18:11.365Z,0.20
2022-12-14T04:20:48.333Z,0.75
2022-12-14T04:23:40.681Z,0.55
2022-12-14T04:26:13.888Z,0.16
2022-12-14T04:29:19.562Z,-0.29
2022-12-14T04:31:53.773Z,-0.47
2022-12-14T04:34:24.568Z,-0.08
2022-12-14T04:36:56.146Z,0.01
2022-12-14T04:39:36.009Z,-0.59
2022-12-14T04:42:06.808Z,-0.47
2022-12-14T04:44:40.391Z,-0.33
2022-12-14T04:47:10.485Z,0.03
2022-12-14T04:49:45.430Z,0.50
2022-12-14T04:52:40.454Z,0.35
2022-12-14T04:55:38.798Z,0.14
2022-12-14T04:58:14.848Z,-0.38
2022-12-14T05:01:16.711Z,-0.28
2022-12-14T05:04:01.103Z,-0.07
2022-12-14T05:07:00.053Z,0.09
2022-12-14T05:09:34.808Z,0.15
2022-12-14T05:12:20.300Z,0.34
2022-12-14T05:14:59.246Z,0.53
2022-12-14T05:17:27.244Z,0.53
2022-12-14T05:19:54.526Z,0.72
2022-12-14T05:22:21.724Z,0.65
2022-12-14T05:24:48.861Z,0.62
2022-12-14T05:27:15.997Z,0.66
2022-12-14T05:29:43.187Z,0.83
2022-12-14T05:32:13.087Z,0.89
2022-12-14T05:34:40.566Z,0.81
2022-12-14T05:37:09.567Z,0.64
2022-12-14T05:39:40.075Z,1.01
2022-12-14T05:42:07.001Z,1.30
2022-12-14T05:44:33.841Z,1.80
2022-12-14T05:47:00.976Z,1.72
2022-12-14T05:49:27.874Z,1.48
2022-12-14T05:51:54.816Z,1.73
2022-12-14T05:54:21.780Z,1.83
2022-12-14T05:56:48.720Z,2.10
2022-12-14T05:59:17.374Z,2.15
2022-12-14T06:01:45.648Z,2.38
2022-12-14T06:04:17.448Z,2.42
2022-12-14T06:06:44.700Z,2.39
2022-12-14T06:09:15.851Z,2.46
2022-12-14T06:11:44.216Z,2.26
2022-12-14T06:14:12.152Z,1.80
2022-12-14T06:16:44.713Z,1.55
2022-12-14T06:19:12.946Z,1.55
2022-12-14T06:21:41.766Z,1.86
2022-12-14T06:24:10.963Z,1.90
2022-12-14T06:26:41.795Z,2.12
2022-12-14T06:29:19.500Z,2.05
2022-12-14T06:31:49.228Z,2.17
2022-12-14T06:34:17.350Z,2.35
2022-12-14T06:36:44.433Z,2.42
2022-12-14T06:39:14.151Z,2.46
2022-12-14T06:41:41.402Z,2.17
2022-12-14T06:44:12.019Z,2.31
2022-12-14T06:46:41.037Z,2.37
2022-12-14T06:49:08.408Z,2.91
2022-12-14T06:51:42.086Z,3.26
2022-12-14T06:54:11.437Z,3.20
2022-12-14T06:56:39.201Z,3.15
2022-12-14T06:59:06.398Z,3.46
2022-12-14T07:01:33.508Z,3.55
2022-12-14T07:04:00.618Z,3.84
2022-12-14T07:06:33.208Z,4.11
2022-12-14T07:09:00.794Z,3.73
2022-12-14T07:11:29.570Z,4.15
2022-12-14T07:13:57.333Z,4.77
2022-12-14T07:16:26.219Z,5.43
2022-12-14T07:18:54.338Z,5.68
2022-12-14T07:21:23.004Z,5.75
2022-12-14T07:23:52.533Z,5.95
2022-12-14T07:26:23.885Z,5.55
2022-12-14T07:28:51.399Z,5.54
2022-12-14T07:31:21.631Z,4.93
2022-12-14T07:33:49.700Z,4.47
2022-12-14T07:36:19.516Z,4.36
2022-12-14T07:38:48.904Z,4.55
2022-12-14T07:41:22.643Z,4.33
2022-12-14T07:43:51.559Z,5.26
2022-12-14T07:46:21.585Z,5.12
2022-12-14T07:48:50.896Z,4.84
2022-12-14T07:51:20.965Z,5.14
2022-12-14T07:53:48.511Z,5.87
2022-12-14T07:56:18.984Z,6.07
2022-12-14T07:58:45.984Z,5.69
2022-12-14T08:01:14.680Z,5.80
2022-12-14T08:03:55.685Z,5.95
2022-12-14T08:06:24.505Z,6.37
2022-12-14T08:08:53.080Z,6.60
2022-12-14T08:11:22.433Z,6.04
2022-12-14T08:14:21.909Z,5.59
2022-12-14T08:16:50.377Z,5.52
2022-12-14T08:19:19.271Z,5.99
2022-12-14T08:21:46.266Z,5.95
2022-12-14T08:24:14.409Z,6.13
2022-12-14T08:26:41.326Z,6.62
2022-12-14T08:29:08.397Z,6.94
2022-12-14T08:31:35.382Z,6.77
2022-12-14T08:34:02.839Z,6.17
2022-12-14T08:36:33.298Z,7.11
2022-12-14T08:39:09.664Z,7.65
2022-12-14T08:41:36.696Z,8.14
2022-12-14T08:44:04.739Z,8.00
2022-12-14T08:46:34.819Z,8.03
2022-12-14T08:49:01.947Z,8.20
2022-12-14T08:51:29.731Z,8.68
2022-12-14T08:53:57.200Z,8.63
2022-12-14T08:56:27.013Z,9.45
2022-12-14T08:58:54.692Z,9.41
2022-12-14T09:01:33.305Z,9.35
2022-12-14T09:04:06.742Z,8.79
2022-12-14T09:06:36.062Z,8.80
2022-12-14T09:09:04.409Z,9.05
2022-12-14T09:11:31.282Z,9.18
2022-12-14T09:13:58.349Z,9.34
2022-12-14T09:16:28.878Z,8.72
2022-12-14T09:18:56.463Z,7.91
2022-12-14T09:21:24.166Z,6.85
2022-12-14T09:23:57.286Z,7.80
2022-12-14T09:26:26.617Z,7.94
2022-12-14T09:28:55.543Z,8.03
2022-12-14T09:31:24.536Z,8.51
2022-12-14T09:33:51.955Z,9.08
2022-12-14T09:36:24.386Z,9.04
2022-12-14T09:38:56.058Z,9.45
2022-12-14T09:42:01.032Z,9.44
2022-12-14T09:44:37.187Z,9.62
2022-12-14T09:47:26.986Z,10.11
2022-12-14T09:50:02.640Z,9.33
2022-12-14T09:52:59.064Z,8.80
2022-12-14T09:55:33.024Z,8.40
2022-12-14T09:58:16.767Z,8.33
2022-12-14T10:00:53.282Z,8.34
2022-12-14T10:03:36.594Z,8.42
2022-12-14T10:06:32.026Z,8.20
2022-12-14T10:09:17.671Z,7.90
2022-12-14T10:11:47.684Z,7.56
2022-12-14T10:14:51.677Z,7.38
2022-12-14T10:17:38.303Z,7.52
2022-12-14T10:20:18.599Z,8.05
2022-12-14T10:22:49.877Z,8.55
2022-12-14T10:25:22.877Z,8.75
2022-12-14T10:28:10.783Z,9.31
2022-12-14T10:30:42.281Z,10.60
2022-12-14T10:33:29.564Z,10.45
2022-12-14T10:36:18.142Z,9.91
2022-12-14T10:39:07.660Z,9.39
2022-12-14T10:41:43.845Z,8.97
2022-12-14T10:44:50.206Z,8.79
2022-12-14T10:47:26.610Z,8.77
2022-12-14T10:50:15.961Z,8.49
2022-12-14T10:52:45.487Z,8.53
2022-12-14T10:55:24.843Z,8.16
2022-12-14T10:57:51.733Z,8.04
2022-12-14T11:00:23.459Z,7.96
2022-12-14T11:02:54.953Z,8.08
2022-12-14T11:05:37.097Z,7.98
2022-12-14T11:08:08.335Z,7.82
2022-12-14T11:10:39.658Z,7.71
2022-12-14T11:13:17.473Z,7.88
2022-12-14T11:15:49.810Z,9.14
2022-12-14T11:18:16.807Z,10.08
2022-12-14T11:20:54.158Z,8.74
2022-12-14T11:23:26.035Z,8.35
2022-12-14T11:25:59.502Z,8.36
2022-12-14T11:28:58.783Z,8.26
2022-12-14T11:31:38.134Z,8.07
2022-12-14T11:34:22.549Z,8.27
2022-12-14T11:36:50.236Z,8.82
2022-12-14T11:39:25.421Z,8.76
2022-12-14T11:42:02.496Z,8.32
2022-12-14T11:44:33.707Z,7.94
2022-12-14T11:47:00.693Z,7.85
2022-12-14T11:49:39.731Z,7.95
2022-12-14T11:52:18.427Z,8.14
2022-12-14T11:54:50.134Z,8.21
2022-12-14T11:57:30.094Z,8.42
2022-12-14T12:00:01.403Z,9.15
2022-12-14T12:02:33.516Z,9.37
2022-12-14T12:05:10.847Z,9.18
2022-12-14T12:07:40.633Z,8.75
2022-12-14T12:10:18.760Z,8.43
2022-12-14T12:13:09.062Z,8.27
2022-12-14T12:15:43.418Z,8.31
2022-12-14T12:18:27.458Z,8.39
2022-12-14T12:21:18.868Z,8.32
2022-12-14T12:24:15.134Z,8.35
2022-12-14T12:26:50.518Z,9.06
2022-12-14T12:29:30.054Z,8.41
2022-12-14T12:31:58.909Z,8.31
2022-12-14T12:34:43.960Z,7.98
2022-12-14T12:37:28.260Z,7.86
2022-12-14T12:40:04.960Z,7.82
2022-12-14T12:42:45.997Z,7.83
2022-12-14T12:45:27.795Z,8.12
2022-12-14T12:48:19.633Z,8.17
2022-12-14T12:50:51.399Z,7.92
2022-12-14T12:53:28.443Z,8.03
2022-12-14T12:56:10.111Z,8.07
2022-12-14T12:58:39.384Z,8.03
2022-12-14T13:01:34.644Z,8.03
2022-12-14T13:04:10.444Z,7.75
2022-12-14T13:06:48.903Z,7.66
2022-12-14T13:09:45.200Z,7.63
2022-12-14T13:12:21.128Z,7.79
2022-12-14T13:14:50.429Z,8.00
2022-12-14T13:17:43.718Z,7.77
2022-12-14T13:20:27.465Z,7.72
2022-12-14T13:22:55.208Z,7.67
2022-12-14T13:25:27.346Z,7.65
2022-12-14T13:27:59.829Z,7.78
2022-12-14T13:30:29.767Z,7.68
2022-12-14T13:33:25.419Z,7.63
2022-12-14T13:36:20.091Z,7.71
2022-12-14T13:39:24.377Z,7.73
2022-12-14T13:42:23.700Z,7.82
2022-12-14T13:45:00.580Z,7.81
2022-12-14T13:47:55.475Z,7.78
2022-12-14T13:50:37.075Z,7.83
2022-12-14T13:53:25.078Z,7.81
2022-12-14T13:55:55.773Z,7.57
2022-12-14T13:58:44.742Z,7.65
2022-12-14T14:01:14.782Z,7.76
2022-12-14T14:03:46.834Z,7.77
2022-12-14T14:06:36.005Z,7.73
2022-12-14T14:09:30.457Z,7.63
2022-12-14T14:12:34.161Z,7.72
2022-12-14T14:15:30.759Z,7.76
2022-12-14T14:18:07.032Z,7.71
2022-12-14T14:20:41.241Z,7.63
2022-12-14T14:23:14.310Z,7.59
2022-12-14T14:25:41.448Z,7.64
2022-12-14T14:28:15.240Z,7.64
2022-12-14T14:30:58.668Z,7.69
2022-12-14T14:33:54.913Z,7.55
2022-12-14T14:36:36.977Z,7.53
2022-12-14T14:39:31.224Z,7.68
2022-12-14T14:41:54.804Z,7.68
2022-12-14T14:45:08.245Z,7.69
2022-12-14T14:47:40.427Z,7.76
2022-12-14T14:50:30.311Z,7.77
2022-12-14T14:53:01.072Z,7.82
2022-12-14T14:55:53.378Z,7.92
2022-12-14T14:58:22.497Z,7.61
2022-12-14T15:01:02.769Z,7.73
2022-12-14T15:03:43.526Z,7.54
2022-12-14T15:06:21.474Z,7.63
2022-12-14T15:08:57.237Z,7.71
2022-12-14T15:11:26.869Z,7.66
2022-12-14T15:14:00.578Z,7.75
2022-12-14T15:16:32.399Z,7.68
2022-12-14T15:19:33.514Z,7.68
2022-12-14T15:22:05.702Z,7.54
2022-12-14T15:24:41.468Z,7.59
2022-12-14T15:27:25.648Z,7.59
2022-12-14T15:29:53.118Z,7.66
2022-12-14T15:32:22.844Z,7.72
2022-12-14T15:35:02.611Z,7.62
2022-12-14T15:37:41.903Z,7.76
2022-12-14T15:40:16.729Z,7.64
2022-12-14T15:42:53.887Z,7.69
2022-12-14T15:45:27.756Z,7.67
2022-12-14T15:47:55.111Z,7.58
2022-12-14T15:50:32.401Z,7.61
2022-12-14T15:53:24.948Z,7.84
2022-12-14T15:56:00.227Z,7.95
2022-12-14T15:58:35.004Z,7.98
2022-12-14T16:01:11.671Z,8.09
2022-12-14T16:03:43.442Z,7.91
2022-12-14T16:06:12.457Z,8.08
2022-12-14T16:08:51.892Z,8.12
2022-12-14T16:11:35.249Z,8.06
2022-12-14T16:14:07.700Z,8.32
2022-12-14T16:16:35.117Z,8.15
2022-12-14T16:19:25.830Z,8.15
2022-12-14T16:22:09.303Z,8.03
2022-12-14T16:24:38.674Z,7.96
2022-12-14T16:27:05.727Z,7.97
2022-12-14T16:29:34.400Z,8.10
2022-12-14T16:32:15.619Z,7.98
2022-12-14T16:34:48.186Z,7.95
2022-12-14T16:37:33.995Z,8.12
2022-12-14T16:40:01.792Z,8.10
2022-12-14T16:42:32.330Z,8.10
2022-12-14T16:44:59.504Z,7.96
2022-12-14T16:47:29.241Z,7.98
2022-12-14T16:49:59.913Z,7.99
2022-12-14T16:52:31.392Z,8.16
2022-12-14T16:55:15.092Z,8.30
2022-12-14T16:57:48.026Z,8.26
2022-12-14T17:00:30.659Z,8.03
2022-12-14T17:03:08.113Z,8.08
2022-12-14T17:05:39.819Z,7.94
2022-12-14T17:08:07.925Z,7.93
2022-12-14T17:10:35.843Z,8.00
2022-12-14T17:13:04.024Z,8.11
2022-12-14T17:15:34.552Z,7.94
2022-12-14T17:18:04.747Z,7.99
2022-12-14T17:20:39.367Z,7.97
2022-12-14T17:23:12.396Z,8.02
2022-12-14T17:25:44.605Z,8.05
2022-12-14T17:28:27.295Z,8.07
2022-12-14T17:30:57.787Z,7.95
2022-12-14T17:33:26.760Z,7.99
2022-12-14T17:35:55.770Z,7.95
2022-12-14T17:38:23.312Z,7.95
2022-12-14T17:40:51.876Z,8.18
2022-12-14T17:43:22.413Z,8.20
2022-12-14T17:45:49.717Z,8.08
2022-12-14T17:48:17.834Z,8.05
2022-12-14T17:50:47.995Z,8.09
2022-12-14T17:53:17.022Z,8.04
2022-12-14T17:55:44.589Z,8.09
2022-12-14T17:58:11.538Z,8.16
2022-12-14T18:00:57.571Z,8.30
2022-12-14T18:03:24.951Z,8.15
2022-12-14T18:05:52.620Z,8.24
2022-12-14T18:08:21.053Z,8.21
2022-12-14T18:10:53.964Z,8.19
2022-12-14T18:13:21.381Z,8.24
2022-12-14T18:15:54.053Z,8.17
2022-12-14T18:18:24.158Z,8.23
2022-12-14T18:20:54.034Z,8.23
2022-12-14T18:23:22.525Z,8.21
2022-12-14T18:25:55.088Z,8.20
2022-12-14T18:28:22.509Z,8.36
2022-12-14T18:31:09.024Z,8.34
2022-12-14T18:33:36.147Z,8.36
2022-12-14T18:36:03.199Z,8.43
2022-12-14T18:38:30.165Z,8.37
2022-12-14T18:40:58.898Z,8.35
2022-12-14T18:43:28.178Z,8.38
2022-12-14T18:45:56.582Z,8.39
2022-12-14T18:48:24.442Z,8.43
2022-12-14T18:50:53.245Z,8.53
2022-12-14T18:53:22.769Z,8.51
2022-12-14T18:55:50.388Z,8.47
2022-12-14T18:58:22.829Z,8.49
2022-12-14T19:00:52.038Z,8.50
2022-12-14T19:03:19.712Z,8.53
2022-12-14T19:05:47.560Z,8.57
2022-12-14T19:08:14.532Z,8.51
2022-12-14T19:10:44.476Z,8.55
2022-12-14T19:13:23.270Z,8.47
2022-12-14T19:15:52.572Z,8.43
2022-12-14T19:18:19.699Z,8.46
2022-12-14T19:20:49.599Z,8.49
2022-12-14T19:23:18.896Z,8.46
2022-12-14T19:25:46.639Z,8.46
2022-12-14T19:31:01.888Z,8.47
2022-12-14T19:33:30.151Z,8.45
2022-12-14T19:35:57.521Z,8.42
2022-12-14T19:38:24.555Z,8.46
2022-12-14T19:41:06.472Z,8.44
2022-12-14T19:43:34.515Z,8.49
2022-12-14T19:46:09.688Z,8.53
2022-12-14T19:48:38.269Z,8.50
2022-12-14T19:51:13.324Z,8.54
2022-12-14T19:53:42.744Z,8.59
2022-12-14T19:56:10.696Z,8.53
2022-12-14T19:58:37.573Z,8.51
2022-12-14T20:01:08.930Z,8.59
2022-12-14T20:03:37.532Z,8.57
2022-12-14T20:06:05.696Z,8.49
2022-12-14T20:08:33.571Z,8.57
2022-12-14T20:11:05.894Z,8.61
2022-12-14T20:13:33.421Z,8.55
2022-12-14T20:16:02.139Z,8.48
2022-12-14T20:18:30.518Z,8.45
2022-12-14T20:21:08.947Z,8.52
2022-12-14T20:23:37.843Z,8.44
2022-12-14T20:26:10.935Z,8.39
2022-12-14T20:28:37.890Z,8.48
2022-12-14T20:31:06.764Z,8.49
2022-12-14T20:33:34.675Z,8.43
2022-12-14T20:36:02.053Z,8.48
2022-12-14T20:38:29.063Z,8.47
2022-12-14T20:40:56.163Z,8.45
2022-12-14T20:43:23.523Z,8.44
2022-12-14T20:45:50.419Z,8.44
2022-12-14T20:48:17.262Z,8.50
2022-12-14T20:50:44.526Z,8.47
2022-12-14T20:53:18.117Z,8.45
2022-12-14T20:55:45.077Z,8.51
2022-12-14T20:58:12.068Z,8.50
2022-12-14T21:00:39.026Z,8.51
2022-12-14T21:03:06.166Z,8.49
2022-12-14T21:05:33.175Z,8.44
2022-12-14T21:08:00.091Z,8.45
2022-12-14T21:10:27.045Z,8.48
2022-12-14T21:12:53.971Z,8.48
2022-12-14T21:15:20.905Z,8.54
2022-12-14T21:17:47.812Z,8.53
2022-12-14T21:20:14.781Z,8.54
2022-12-14T21:22:41.728Z,8.68
2022-12-14T21:25:09.075Z,8.60
2022-12-14T21:27:38.823Z,8.58
2022-12-14T21:30:08.772Z,8.67
2022-12-14T21:32:38.519Z,8.65
2022-12-14T21:35:06.428Z,8.62
2022-12-14T21:37:33.392Z,8.66
2022-12-14T21:40:03.277Z,8.71
2022-12-14T21:42:30.218Z,8.67
2022-12-14T21:44:57.823Z,8.67
2022-12-14T21:47:27.463Z,8.74
2022-12-14T21:49:55.255Z,8.67
2022-12-14T21:52:25.140Z,8.70
2022-12-14T21:54:52.088Z,8.66
2022-12-14T21:57:40.245Z,8.76
2022-12-14T22:00:08.785Z,8.69
2022-12-14T22:02:42.408Z,8.67
2022-12-14T22:05:10.726Z,8.74
2022-12-14T22:07:37.891Z,8.69
2022-12-14T22:10:05.335Z,8.67
2022-12-14T22:12:32.285Z,8.72
2022-12-14T22:14:59.212Z,8.77
2022-12-14T22:17:26.187Z,8.71
2022-12-14T22:19:55.256Z,8.71
2022-12-14T22:22:22.688Z,8.82
2022-12-14T22:24:51.250Z,8.83
2022-12-14T22:27:18.722Z,8.76
2022-12-14T22:29:45.695Z,8.78
2022-12-14T22:32:13.060Z,8.86
2022-12-14T22:34:40.084Z,8.83
2022-12-14T22:37:07.094Z,8.82
2022-12-14T22:39:34.123Z,8.86
2022-12-14T22:42:01.065Z,8.85
2022-12-14T22:44:27.985Z,8.80
2022-12-14T22:46:55.072Z,8.95
2022-12-14T22:49:21.944Z,8.91
2022-12-14T22:51:48.870Z,8.83
2022-12-14T22:54:21.063Z,8.80
2022-12-14T22:56:53.809Z,8.85
2022-12-14T22:59:34.078Z,8.86
2022-12-14T23:02:01.142Z,8.84
2022-12-14T23:04:28.321Z,8.89
2022-12-14T23:06:55.666Z,8.93
2022-12-14T23:09:41.156Z,8.89
2022-12-14T23:12:26.479Z,8.92
2022-12-14T23:15:12.130Z,8.94
2022-12-14T23:17:57.709Z,8.91
2022-12-14T23:20:43.346Z,8.93
2022-12-14T23:23:29.344Z,8.97
2022-12-14T23:26:15.056Z,8.94
2022-12-14T23:29:00.501Z,8.85
2022-12-14T23:31:46.100Z,8.99
2022-12-14T23:34:31.781Z,8.86
2022-12-14T23:37:20.495Z,8.91
2022-12-14T23:40:06.526Z,8.98
2022-12-14T23:42:52.056Z,8.94
2022-12-14T23:45:37.607Z,8.93
2022-12-14T23:48:23.290Z,8.91
2022-12-14T23:51:08.873Z,8.84
2022-12-14T23:53:54.192Z,8.79
2022-12-14T23:56:39.914Z,8.74
2022-12-14T23:59:31.439Z,8.65
